createdAt,value
2022-12-20T00:01:33.747Z,16.40
2022-12-20T00:04:10.941Z,14.90
2022-12-20T00:06:45.870Z,15.00
2022-12-20T00:09:20.819Z,13.73
2022-12-20T00:11:55.711Z,14.30
2022-12-20T00:14:30.624Z,14.47
2022-12-20T00:17:05.529Z,14.53
2022-12-20T00:19:40.444Z,13.70
2022-12-20T00:22:15.324Z,13.50
2022-12-20T00:24:50.218Z,14.27
2022-12-20T00:27:25.159Z,15.00
2022-12-20T00:30:00.052Z,13.70
2022-12-20T00:32:34.972Z,14.20
2022-12-20T00:35:10.650Z,14.10
2022-12-20T00:37:45.604Z,14.20
2022-12-20T00:40:20.577Z,15.00
2022-12-20T00:42:55.502Z,15.00
2022-12-20T00:45:30.442Z,14.70
2022-12-20T00:48:06.082Z,14.40
2022-12-20T00:50:41.031Z,13.80
2022-12-20T00:53:19.851Z,15.53
2022-12-20T00:55:58.388Z,14.63
2022-12-20T00:58:35.442Z,15.10
2022-12-20T01:01:27.457Z,15.30
2022-12-20T01:04:03.076Z,15.30
2022-12-20T01:06:38.229Z,14.80
2022-12-20T01:09:13.536Z,14.93
2022-12-20T01:11:48.432Z,15.20
2022-12-20T01:14:23.323Z,16.43
2022-12-20T01:16:58.450Z,16.27
2022-12-20T01:19:33.737Z,15.00
2022-12-20T01:22:08.606Z,15.47
2022-12-20T01:24:43.542Z,16.20
2022-12-20T01:27:18.500Z,15.43
2022-12-20T01:29:53.429Z,15.33
2022-12-20T01:32:28.324Z,15.00
2022-12-20T01:35:03.660Z,15.50
2022-12-20T01:37:38.609Z,15.87
2022-12-20T01:40:13.790Z,14.70
2022-12-20T01:42:48.730Z,14.90
2022-12-20T01:45:30.129Z,16.57
2022-12-20T01:48:05.773Z,14.67
2022-12-20T01:50:40.930Z,14.73
2022-12-20T01:53:18.426Z,14.77
2022-12-20T01:55:54.825Z,14.03
2022-12-20T01:58:31.101Z,14.87
2022-12-20T02:01:06.353Z,14.90
2022-12-20T02:03:43.395Z,15.37
2022-12-20T02:06:25.963Z,14.43
2022-12-20T02:09:04.157Z,15.50
2022-12-20T02:11:58.327Z,13.60
2022-12-20T02:15:16.341Z,14.20
2022-12-20T02:18:23.111Z,14.27
2022-12-20T02:21:16.110Z,13.80
2022-12-20T02:24:33.751Z,14.80
2022-12-20T02:27:38.157Z,14.70
2022-12-20T02:30:20.139Z,14.60
2022-12-20T02:33:07.810Z,15.10
2022-12-20T02:35:43.261Z,12.73
2022-12-20T02:38:38.048Z,14.87
2022-12-20T02:41:36.439Z,13.40
2022-12-20T02:44:36.460Z,13.60
2022-12-20T02:47:19.230Z,13.60
2022-12-20T02:49:55.822Z,12.80
2022-12-20T02:52:32.900Z,14.97
2022-12-20T02:55:08.919Z,13.27
2022-12-20T02:58:34.109Z,13.30
2022-12-20T03:01:18.920Z,12.53
2022-12-20T03:03:55.315Z,13.77
2022-12-20T03:06:33.624Z,13.93
2022-12-20T03:09:08.736Z,13.90
2022-12-20T03:11:45.469Z,13.43
2022-12-20T03:14:20.528Z,13.83
2022-12-20T03:16:58.629Z,12.30
2022-12-20T03:19:34.134Z,14.00
2022-12-20T03:22:09.054Z,14.23
2022-12-20T03:24:44.047Z,11.10
2022-12-20T03:27:22.305Z,12.37
2022-12-20T03:29:57.260Z,12.47
2022-12-20T03:32:32.396Z,13.50
2022-12-20T03:35:08.294Z,12.63
2022-12-20T03:37:46.545Z,12.70
2022-12-20T03:40:22.997Z,14.00
2022-12-20T03:42:58.038Z,13.60
2022-12-20T03:45:33.073Z,14.37
2022-12-20T03:48:08.017Z,13.10
2022-12-20T03:50:43.031Z,12.73
2022-12-20T03:53:18.198Z,13.73
2022-12-20T03:55:53.287Z,14.47
2022-12-20T03:58:28.367Z,13.27
2022-12-20T04:01:17.039Z,13.37
2022-12-20T04:03:52.406Z,13.27
2022-12-20T04:06:27.349Z,13.80
2022-12-20T04:09:02.395Z,14.47
2022-12-20T04:11:42.784Z,13.60
2022-12-20T04:14:21.663Z,13.67
2022-12-20T04:16:57.576Z,14.57
2022-12-20T04:19:32.731Z,14.00
2022-12-20T04:22:08.507Z,13.93
2022-12-20T04:24:55.270Z,12.47
2022-12-20T04:27:32.583Z,14.13
2022-12-20T04:30:10.077Z,13.30
2022-12-20T04:32:45.233Z,13.50
2022-12-20T04:35:20.796Z,13.20
2022-12-20T04:37:56.143Z,12.30
2022-12-20T04:40:31.074Z,12.77
2022-12-20T04:43:08.523Z,12.00
2022-12-20T04:45:44.267Z,13.53
2022-12-20T04:48:55.255Z,12.60
2022-12-20T04:51:16.792Z,12.13
2022-12-20T04:53:52.022Z,13.40
2022-12-20T04:56:35.035Z,12.70
2022-12-20T04:59:16.710Z,12.10
2022-12-20T05:01:54.272Z,13.20
2022-12-20T05:04:49.509Z,13.17
2022-12-20T05:07:24.964Z,12.40
2022-12-20T05:10:01.973Z,12.80
2022-12-20T05:12:38.304Z,12.90
2022-12-20T05:15:13.387Z,11.67
2022-12-20T05:17:49.254Z,12.20
2022-12-20T05:20:24.315Z,11.60
2022-12-20T05:23:18.215Z,11.50
2022-12-20T05:26:14.829Z,12.63
2022-12-20T05:28:50.901Z,11.60
2022-12-20T05:31:26.276Z,11.90
2022-12-20T05:34:01.445Z,12.07
2022-12-20T05:36:39.439Z,12.90
2022-12-20T05:39:16.207Z,11.47
2022-12-20T05:41:53.833Z,11.60
2022-12-20T05:44:32.150Z,10.07
2022-12-20T05:47:08.211Z,11.10
2022-12-20T05:49:45.024Z,10.43
2022-12-20T05:52:20.048Z,10.50
2022-12-20T05:54:54.945Z,12.17
2022-12-20T05:57:33.166Z,10.80
2022-12-20T06:00:13.325Z,11.70
2022-12-20T06:02:51.964Z,11.60
2022-12-20T06:05:27.101Z,11.00
2022-12-20T06:08:04.790Z,11.30
2022-12-20T06:10:41.986Z,10.93
2022-12-20T06:13:18.224Z,11.63
2022-12-20T06:15:53.747Z,10.80
2022-12-20T06:18:29.515Z,10.80
2022-12-20T06:21:08.767Z,10.40
2022-12-20T06:23:44.569Z,9.70
2022-12-20T06:26:23.472Z,9.77
2022-12-20T06:29:02.159Z,9.37
2022-12-20T06:31:48.098Z,9.80
2022-12-20T06:34:23.638Z,9.00
2022-12-20T06:36:59.071Z,9.77
2022-12-20T06:39:37.853Z,9.90
2022-12-20T06:42:15.877Z,9.30
2022-12-20T06:44:54.292Z,9.43
2022-12-20T06:47:29.342Z,9.20
2022-12-20T06:50:06.276Z,10.50
2022-12-20T06:52:42.485Z,9.97
2022-12-20T06:55:19.591Z,8.73
2022-12-20T06:57:56.351Z,9.93
2022-12-20T07:00:32.460Z,9.60
2022-12-20T07:03:08.544Z,9.20
2022-12-20T07:05:44.447Z,9.03
2022-12-20T07:08:20.758Z,8.90
2022-12-20T07:10:56.923Z,9.27
2022-12-20T07:13:32.055Z,8.93
2022-12-20T07:16:08.119Z,9.40
2022-12-20T07:18:43.130Z,9.27
2022-12-20T07:21:19.957Z,9.93
2022-12-20T07:23:58.173Z,9.33
2022-12-20T07:26:33.224Z,8.80
2022-12-20T07:29:13.412Z,9.10
2022-12-20T07:31:50.413Z,7.90
2022-12-20T07:34:25.498Z,7.47
2022-12-20T07:37:01.034Z,9.30
2022-12-20T07:39:35.997Z,9.17
2022-12-20T07:42:11.987Z,8.33
2022-12-20T07:44:50.661Z,8.00
2022-12-20T07:47:25.555Z,7.37
2022-12-20T07:50:00.544Z,8.43
2022-12-20T07:52:36.585Z,7.03
2022-12-20T07:55:13.491Z,8.03
2022-12-20T07:57:55.878Z,7.93
2022-12-20T08:00:32.768Z,7.77
2022-12-20T08:03:21.998Z,6.53
2022-12-20T08:06:03.815Z,7.50
2022-12-20T08:08:44.015Z,7.00
2022-12-20T08:11:20.936Z,7.47
2022-12-20T08:13:58.342Z,7.43
2022-12-20T08:16:34.051Z,7.30
2022-12-20T08:19:09.558Z,8.10
2022-12-20T08:21:44.486Z,7.20
2022-12-20T08:24:19.374Z,7.53
2022-12-20T08:26:54.294Z,7.97
2022-12-20T08:29:29.227Z,7.87
2022-12-20T08:32:04.581Z,7.20
2022-12-20T08:34:40.369Z,8.13
2022-12-20T08:37:19.114Z,7.80
2022-12-20T08:39:54.047Z,7.70
2022-12-20T08:42:29.258Z,8.33
2022-12-20T08:45:05.279Z,7.73
2022-12-20T08:47:40.209Z,7.77
2022-12-20T08:50:15.207Z,6.50
2022-12-20T08:52:50.126Z,7.53
2022-12-20T08:55:29.037Z,7.17
2022-12-20T08:58:04.619Z,7.70
2022-12-20T09:00:39.586Z,6.60
2022-12-20T09:03:15.280Z,6.37
2022-12-20T09:05:50.492Z,7.07
2022-12-20T09:08:26.025Z,6.60
2022-12-20T09:11:12.081Z,7.40
2022-12-20T09:13:50.783Z,6.70
2022-12-20T09:16:30.691Z,7.10
2022-12-20T09:19:06.622Z,6.80
2022-12-20T09:21:41.884Z,6.70
2022-12-20T09:24:17.393Z,7.80
2022-12-20T09:26:52.457Z,6.70
2022-12-20T09:29:33.659Z,6.80
2022-12-20T09:32:10.282Z,7.63
2022-12-20T09:34:45.262Z,7.30
2022-12-20T09:37:20.250Z,6.93
2022-12-20T09:39:55.298Z,6.83
2022-12-20T09:42:31.239Z,7.20
2022-12-20T09:45:15.069Z,8.00
2022-12-20T09:47:50.412Z,7.80
2022-12-20T09:50:56.278Z,7.50
2022-12-20T09:54:05.320Z,7.63
2022-12-20T09:56:47.556Z,7.03
2022-12-20T09:59:22.755Z,7.90
2022-12-20T10:02:07.930Z,8.03
2022-12-20T10:04:54.015Z,7.60
2022-12-20T10:08:17.471Z,7.33
2022-12-20T10:11:04.535Z,7.70
2022-12-20T10:13:57.464Z,7.10
2022-12-20T10:16:45.189Z,8.37
2022-12-20T10:19:34.713Z,7.70
2022-12-20T10:22:26.424Z,6.97
2022-12-20T10:25:18.436Z,6.60
2022-12-20T10:27:57.198Z,7.40
2022-12-20T10:30:35.570Z,8.27
2022-12-20T10:33:23.103Z,8.90
2022-12-20T10:36:17.921Z,7.90
2022-12-20T10:39:01.610Z,7.73
2022-12-20T10:41:45.644Z,7.70
2022-12-20T10:44:29.784Z,8.27
2022-12-20T10:47:46.078Z,7.93
2022-12-20T10:50:24.944Z,7.00
2022-12-20T10:53:12.126Z,6.93
2022-12-20T10:55:47.535Z,7.70
2022-12-20T10:58:30.267Z,7.57
2022-12-20T11:01:18.289Z,7.77
2022-12-20T11:04:03.007Z,7.27
2022-12-20T11:06:37.856Z,7.43
2022-12-20T11:09:23.832Z,7.53
2022-12-20T11:12:15.025Z,7.00
2022-12-20T11:14:50.705Z,6.90
2022-12-20T11:17:37.476Z,6.50
2022-12-20T11:20:48.872Z,6.63
2022-12-20T11:23:23.803Z,6.63
2022-12-20T11:26:36.972Z,6.53
2022-12-20T11:29:52.894Z,6.57
2022-12-20T11:32:58.681Z,6.83
2022-12-20T11:35:46.037Z,7.20
2022-12-20T11:38:57.123Z,6.93
2022-12-20T11:42:08.830Z,6.90
2022-12-20T11:45:05.149Z,6.70
2022-12-20T11:48:09.939Z,6.77
2022-12-20T11:51:03.777Z,6.40
2022-12-20T11:54:05.599Z,6.70
2022-12-20T11:56:45.275Z,5.80
2022-12-20T12:00:03.341Z,6.50
2022-12-20T12:03:21.970Z,6.57
2022-12-20T12:06:32.529Z,6.60
2022-12-20T12:09:21.948Z,6.33
2022-12-20T12:12:21.883Z,6.83
2022-12-20T12:15:16.945Z,6.73
2022-12-20T12:18:18.939Z,6.63
2022-12-20T12:21:23.497Z,6.13
2022-12-20T12:24:20.582Z,7.20
2022-12-20T12:26:55.615Z,7.73
2022-12-20T12:29:33.391Z,6.77
2022-12-20T12:32:38.373Z,6.50
2022-12-20T12:35:15.941Z,7.10
2022-12-20T12:38:27.525Z,6.90
2022-12-20T12:41:14.140Z,6.53
2022-12-20T12:43:55.723Z,6.37
2022-12-20T12:46:35.807Z,5.90
2022-12-20T12:49:19.159Z,6.00
2022-12-20T12:51:58.912Z,6.80
2022-12-20T12:54:40.294Z,5.77
2022-12-20T12:57:18.047Z,6.37
2022-12-20T12:59:53.015Z,6.53
2022-12-20T13:02:35.486Z,6.10
2022-12-20T13:05:10.572Z,6.70
2022-12-20T13:07:45.921Z,6.83
2022-12-20T13:10:25.646Z,6.43
2022-12-20T13:13:02.846Z,6.70
2022-12-20T13:15:40.840Z,6.43
2022-12-20T13:18:16.087Z,5.90
2022-12-20T13:21:18.623Z,7.10
2022-12-20T13:24:51.005Z,6.00
2022-12-20T13:27:32.024Z,5.90
2022-12-20T13:30:13.763Z,5.60
2022-12-20T13:32:48.749Z,6.50
2022-12-20T13:35:29.168Z,6.67
2022-12-20T13:38:13.151Z,6.40
2022-12-20T13:40:58.679Z,5.67
2022-12-20T13:43:42.909Z,7.00
2022-12-20T13:46:50.988Z,5.83
2022-12-20T13:49:28.392Z,6.87
2022-12-20T13:52:14.001Z,6.33
2022-12-20T13:54:53.123Z,6.23
2022-12-20T13:57:43.853Z,6.30
2022-12-20T14:00:25.577Z,5.80
2022-12-20T14:03:02.281Z,5.97
2022-12-20T14:05:38.634Z,5.70
2022-12-20T14:08:23.178Z,5.63
2022-12-20T14:11:19.849Z,6.10
2022-12-20T14:13:59.989Z,6.17
2022-12-20T14:16:35.069Z,6.33
2022-12-20T14:19:15.305Z,6.20
2022-12-20T14:21:50.376Z,5.67
2022-12-20T14:24:25.341Z,6.87
2022-12-20T14:27:00.722Z,7.20
2022-12-20T14:29:35.710Z,6.97
2022-12-20T14:32:19.671Z,8.20
2022-12-20T14:34:54.740Z,6.73
2022-12-20T14:37:36.546Z,6.33
2022-12-20T14:40:11.429Z,6.73
2022-12-20T14:42:47.017Z,7.60
2022-12-20T14:45:28.111Z,7.10
2022-12-20T14:48:07.442Z,7.43
2022-12-20T14:50:54.748Z,7.03
2022-12-20T14:53:29.861Z,6.83
2022-12-20T14:56:05.133Z,7.30
2022-12-20T14:58:40.798Z,6.33
2022-12-20T15:01:15.724Z,5.57
2022-12-20T15:04:00.245Z,6.93
2022-12-20T15:06:41.751Z,6.60
2022-12-20T15:09:17.036Z,6.90
2022-12-20T15:11:53.332Z,7.67
2022-12-20T15:14:40.844Z,6.37
2022-12-20T15:17:15.919Z,7.93
2022-12-20T15:19:50.853Z,7.13
2022-12-20T15:22:25.836Z,7.93
2022-12-20T15:25:00.797Z,7.53
2022-12-20T15:27:35.813Z,7.50
2022-12-20T15:30:14.463Z,6.93
2022-12-20T15:32:55.466Z,7.20
2022-12-20T15:35:31.198Z,7.27
2022-12-20T15:38:06.563Z,7.90
2022-12-20T15:40:41.582Z,7.83
2022-12-20T15:43:21.727Z,7.50
2022-12-20T15:45:56.721Z,6.57
2022-12-20T15:48:31.661Z,7.10
2022-12-20T15:51:35.583Z,7.30
2022-12-20T15:54:27.301Z,8.20
2022-12-20T15:57:09.291Z,8.17
2022-12-20T16:00:02.294Z,7.80
2022-12-20T16:02:49.795Z,8.83
2022-12-20T16:05:24.816Z,8.13
2022-12-20T16:08:00.165Z,8.10
2022-12-20T16:10:35.517Z,8.50
2022-12-20T16:13:21.557Z,9.53
2022-12-20T16:15:56.549Z,9.60
2022-12-20T16:18:34.576Z,8.53
2022-12-20T16:21:23.593Z,9.23
2022-12-20T16:23:58.664Z,9.10
2022-12-20T16:26:33.555Z,8.30
2022-12-20T16:29:08.777Z,8.60
2022-12-20T16:31:43.810Z,8.07
2022-12-20T16:34:19.362Z,8.67
2022-12-20T16:36:54.341Z,8.63
2022-12-20T16:39:29.253Z,9.00
2022-12-20T16:42:06.053Z,9.00
2022-12-20T16:44:42.838Z,8.30
2022-12-20T16:47:17.898Z,8.10
2022-12-20T16:49:53.981Z,8.40
2022-12-20T16:52:29.021Z,8.27
2022-12-20T16:55:05.682Z,8.70
2022-12-20T16:57:40.855Z,9.60
2022-12-20T17:00:23.868Z,9.50
2022-12-20T17:02:59.319Z,8.13
2022-12-20T17:05:36.951Z,9.80
2022-12-20T17:11:20.826Z,9.83
2022-12-20T17:13:56.888Z,10.23
2022-12-20T17:16:31.862Z,10.10
2022-12-20T17:19:06.790Z,10.13
2022-12-20T17:24:40.030Z,10.30
2022-12-20T17:27:15.039Z,9.70
2022-12-20T17:29:50.844Z,9.37
2022-12-20T17:32:26.792Z,9.13
2022-12-20T17:35:01.794Z,10.30
2022-12-20T17:37:36.873Z,10.30
2022-12-20T17:40:15.296Z,10.20
2022-12-20T17:42:50.653Z,10.27
2022-12-20T17:45:32.655Z,10.13
2022-12-20T17:48:08.653Z,10.03
2022-12-20T17:50:43.525Z,9.03
2022-12-20T17:53:18.495Z,10.17
2022-12-20T17:55:53.405Z,11.23
2022-12-20T17:58:28.319Z,11.00
2022-12-20T18:01:03.530Z,10.50
2022-12-20T18:04:02.934Z,9.70
2022-12-20T18:06:39.570Z,9.47
2022-12-20T18:09:21.080Z,8.90
2022-12-20T18:11:56.155Z,10.07
2022-12-20T18:14:31.199Z,8.70
2022-12-20T18:17:06.386Z,8.30
2022-12-20T18:19:41.487Z,8.50
2022-12-20T18:22:16.968Z,9.23
2022-12-20T18:24:51.960Z,8.13
2022-12-20T18:27:30.598Z,9.60
2022-12-20T18:30:07.418Z,8.97
2022-12-20T18:32:42.710Z,8.37
2022-12-20T18:35:17.750Z,8.10
2022-12-20T18:37:52.871Z,8.93
2022-12-20T18:40:27.788Z,9.77
2022-12-20T18:43:06.303Z,9.50
2022-12-20T18:45:41.853Z,8.37
2022-12-20T18:48:16.807Z,9.30
2022-12-20T18:50:51.735Z,8.97
2022-12-20T18:53:26.822Z,9.40
2022-12-20T18:56:14.670Z,8.40
2022-12-20T18:58:49.625Z,8.43
2022-12-20T19:01:31.788Z,9.03
2022-12-20T19:04:08.351Z,10.20
2022-12-20T19:06:43.288Z,10.27
2022-12-20T19:09:18.257Z,9.33
2022-12-20T19:11:56.984Z,9.60
2022-12-20T19:14:32.522Z,9.93
2022-12-20T19:17:07.953Z,9.87
2022-12-20T19:19:42.967Z,9.13
2022-12-20T19:22:18.015Z,8.87
2022-12-20T19:24:55.697Z,9.50
2022-12-20T19:27:30.960Z,9.00
2022-12-20T19:30:07.052Z,9.20
2022-12-20T19:32:41.996Z,9.20
2022-12-20T19:35:53.540Z,8.77
2022-12-20T19:38:12.030Z,7.83
2022-12-20T19:40:54.496Z,8.10
2022-12-20T19:43:29.938Z,7.63
2022-12-20T19:46:05.415Z,7.40
2022-12-20T19:48:40.493Z,8.53
2022-12-20T19:51:17.493Z,7.33
2022-12-20T19:53:53.740Z,7.80
2022-12-20T19:56:34.058Z,8.37
2022-12-20T19:59:11.786Z,7.90
2022-12-20T20:01:46.944Z,7.77
2022-12-20T20:04:21.958Z,9.77
2022-12-20T20:06:56.974Z,8.27
2022-12-20T20:09:31.998Z,8.60
2022-12-20T20:12:07.151Z,8.30
2022-12-20T20:14:42.549Z,8.50
2022-12-20T20:17:17.923Z,8.20
2022-12-20T20:19:52.862Z,8.50
2022-12-20T20:22:27.800Z,8.57
2022-12-20T20:25:02.886Z,9.43
2022-12-20T20:27:37.824Z,8.67
2022-12-20T20:30:15.563Z,8.13
2022-12-20T20:32:50.956Z,8.83
2022-12-20T20:35:26.017Z,9.73
2022-12-20T20:38:01.338Z,9.30
2022-12-20T20:40:36.556Z,10.70
2022-12-20T20:43:11.463Z,9.30
2022-12-20T20:45:46.870Z,8.90
2022-12-20T20:48:22.034Z,9.17
2022-12-20T20:50:56.977Z,9.70
2022-12-20T20:53:34.229Z,10.17
2022-12-20T20:56:10.527Z,10.87
2022-12-20T20:58:46.555Z,10.00
2022-12-20T21:01:22.995Z,10.67
2022-12-20T21:03:58.373Z,13.10
2022-12-20T21:06:40.440Z,11.33
2022-12-20T21:09:15.838Z,9.30
2022-12-20T21:11:50.994Z,9.40
2022-12-20T21:15:00.497Z,10.10
2022-12-20T21:17:21.972Z,11.30
2022-12-20T21:19:56.865Z,9.10
2022-12-20T21:22:31.759Z,9.50
2022-12-20T21:25:07.014Z,8.97
2022-12-20T21:27:42.035Z,9.97
2022-12-20T21:30:17.528Z,9.00
2022-12-20T21:32:52.501Z,8.47
2022-12-20T21:35:27.948Z,8.23
2022-12-20T21:38:03.416Z,9.10
2022-12-20T21:40:38.419Z,8.40
2022-12-20T21:43:13.349Z,9.97
2022-12-20T21:45:50.542Z,9.77
2022-12-20T21:48:26.935Z,10.93
2022-12-20T21:51:10.153Z,9.20
2022-12-20T21:53:57.244Z,9.37
2022-12-20T21:56:35.555Z,9.00
2022-12-20T21:59:11.022Z,9.10
2022-12-20T22:01:47.165Z,7.80
2022-12-20T22:04:22.317Z,8.50
2022-12-20T22:06:57.520Z,7.70
2022-12-20T22:09:32.466Z,8.03
2022-12-20T22:12:07.331Z,8.80
2022-12-20T22:14:42.250Z,7.10
2022-12-20T22:17:17.122Z,6.97
2022-12-20T22:19:52.009Z,8.27
2022-12-20T22:22:26.916Z,7.43
2022-12-20T22:25:01.831Z,6.30
2022-12-20T22:27:36.754Z,6.67
2022-12-20T22:30:12.179Z,6.50
2022-12-20T22:32:48.339Z,6.70
2022-12-20T22:35:23.331Z,6.03
2022-12-20T22:37:58.245Z,6.60
2022-12-20T22:40:33.117Z,5.70
2022-12-20T22:43:08.365Z,6.00
2022-12-20T22:45:43.300Z,6.43
2022-12-20T22:48:18.170Z,6.40
2022-12-20T22:51:12.599Z,5.50
2022-12-20T22:53:48.304Z,6.57
2022-12-20T22:56:23.330Z,8.00
2022-12-20T22:58:58.267Z,7.50
2022-12-20T23:01:33.263Z,7.47
2022-12-20T23:04:09.061Z,6.93
2022-12-20T23:06:43.973Z,6.50
2022-12-20T23:09:18.870Z,6.30
2022-12-20T23:12:12.217Z,6.00
2022-12-20T23:15:05.599Z,6.57
2022-12-20T23:17:40.538Z,6.60
2022-12-20T23:20:34.166Z,6.03
2022-12-20T23:23:09.712Z,5.93
2022-12-20T23:25:44.648Z,5.63
2022-12-20T23:28:19.545Z,5.60
2022-12-20T23:30:54.457Z,5.80
2022-12-20T23:33:29.364Z,4.60
2022-12-20T23:36:06.249Z,5.20
2022-12-20T23:38:41.871Z,4.27
2022-12-20T23:41:16.886Z,4.10
2022-12-20T23:43:51.806Z,4.60
2022-12-20T23:46:26.954Z,3.40
2022-12-20T23:49:01.947Z,2.97
2022-12-20T23:51:36.870Z,2.87
2022-12-20T23:54:12.248Z,3.30
2022-12-20T23:56:51.071Z,3.20
2022-12-20T23:59:26.165Z,5.20
